Portada
METAR-TAF:

METAR-TAF

Aeroports :

Aeroport de Rabat

Rabat, Marroc

latitud: 34-03N, longitud: 006-46W, altitud: 84 m

Observació

L'informe es va fer fa 42 minuts, a les 06:00 UTC
Vent calma
Temperatura 7°C
Humitat 100%
Pressió 1013 hPa
Visibilitat: 5000 m

METAR: GMME 030600Z 00000KT 5000 NSC 07/07 Q1013 NOSIG

Hora: 07:42 (06:42 UTC)

Pronòstic

L'informe es va fer fa 1 hora i 42 minuts, a les 05:00 UTC
Pronòstic vàlid del 03 a les 06 UTC al 04 a les 12 UTC
Vent 2 kt amb direcció variable
Visibilitat: 5000 m
Núvols disperses a una alçada de 1300 ft
Temporalment
l' 03 a les 08 UTC al 03 a les 18 UTC
Vent 8 kt del Sud
Visibilitat: 8000 m
Evolucionant progressivament
l' 03 a les 12 UTC al 03 a les 15 UTC
Vent 12 kt del Oest

TAF: GMME 030500Z 0306/0412 VRB02KT 5000 SCT013 TEMPO 0308/0318 18008KT 8000 NSC BECMG 0312/0315 28012KT

Observacions i pronòstics meteorològics de més de 4000 aeroports (METAR i TAF).

Les estacions disponibles són els punts grocs i vermells al mapa.

Posi el ratolí al punt desitjat per veure el nom de l'estació.

Feu clic per veure les observacions i els pronòstics meteorològics.

Per canviar el mapa: feu clic els botons verds amb una creu de color negre per apropar; al botó verd amb un guió per allunyar la imatge; o en les fletxes verdes per a mapes adjacents.


METAR-TAF: